MDT,Max TemperatureF,Mean TemperatureF,Min TemperatureF,Max Dew PointF,MeanDew PointF,Min DewpointF,Max Humidity, Mean Humidity, Min Humidity, Max Sea Level PressureIn, Mean Sea Level PressureIn, Min Sea Level PressureIn, Max VisibilityMiles, Mean VisibilityMiles, Min VisibilityMiles, Max Wind SpeedMPH, Mean Wind SpeedMPH, Max Gust SpeedMPH,PrecipitationIn, CloudCover, Events, WindDirDegrees
2011-9-1,58,49,40,49,45,38,100,81,61,30.08,30.03,29.93,10,10,10,18,7,22,0.02,7,Rain,287
2011-9-2,69,54,38,39,34,30,85,55,24,30.19,29.99,29.89,10,10,10,32,15,45,0.00,2,,274
2011-9-3,63,49,34,38,33,27,89,57,25,30.37,30.31,30.25,10,10,10,13,6,15,0.00,0,,269
2011-9-4,79,58,36,35,31,23,76,45,14,30.28,30.09,29.93,10,10,10,13,6,18,0.00,0,,125
2011-9-5,84,65,45,38,32,25,58,36,13,29.94,29.91,29.86,10,10,10,12,5,15,0.00,0,,85
2011-9-6,83,64,44,35,31,24,60,36,12,30.19,30.09,29.94,10,10,10,12,4,16,0.00,0,,120
2011-9-7,86,66,46,38,32,30,53,33,13,30.29,30.23,30.19,10,10,6,13,5,15,0.00,0,,117
2011-9-8,86,68,49,37,31,28,54,34,13,30.27,30.20,30.14,10,10,10,15,7,18,0.00,0,,118
2011-9-9,84,65,46,37,34,30,60,38,16,30.24,30.17,30.12,10,10,10,16,7,22,0.00,0,,113
2011-9-10,83,64,45,38,33,29,65,40,14,30.16,30.09,30.03,10,10,10,13,5,17,0.00,0,,116
2011-9-11,86,66,46,38,33,28,65,39,13,30.03,29.94,29.83,10,10,10,21,7,28,0.00,0,,168
2011-9-12,76,59,42,46,42,38,89,60,31,30.20,30.07,29.98,10,10,10,22,8,30,0.00,0,,133
2011-9-13,66,55,44,41,39,34,83,61,39,30.26,30.21,30.15,10,10,10,20,9,25,0.00,3,,180
2011-9-14,58,49,39,39,37,35,83,67,50,30.31,30.22,30.08,10,10,10,24,15,32,0.00,4,,104
2011-9-15,80,58,36,40,37,34,92,56,19,30.04,29.86,29.72,10,10,10,12,4,18,0.00,0,,118
2011-9-16,67,57,47,51,42,37,64,49,34,29.81,29.76,29.67,10,10,10,16,6,22,0.02,4,Rain,262
2011-9-17,68,54,39,40,30,22,82,50,18,30.01,29.88,29.80,10,10,10,23,8,29,0.00,0,,287
2011-9-18,69,55,40,38,33,24,61,46,30,30.07,30.04,30.01,10,10,10,25,9,33,0.00,4,,264
2011-9-19,70,53,36,45,39,35,96,63,30,30.21,30.04,29.82,10,10,6,28,15,39,0.05,5,Rain,264
2011-9-20,58,45,31,37,33,30,92,64,36,30.32,30.26,30.18,10,10,10,15,7,20,0.00,1,,275
2011-9-21,71,52,33,34,30,25,89,54,19,30.24,30.15,30.06,10,10,10,12,5,13,0.00,0,,123
2011-9-22,83,62,40,36,30,24,67,40,12,30.05,30.02,29.97,10,10,10,17,7,23,0.00,0,,143
2011-9-23,86,68,50,39,35,30,55,35,15,30.07,30.01,29.94,10,10,10,17,6,23,0.00,0,,256
2011-9-24,87,67,47,36,27,18,61,35,8,30.04,29.95,29.87,10,10,10,10,5,13,0.00,0,,118
2011-9-25,91,69,47,31,27,21,42,25,8,29.86,29.74,29.63,10,10,10,21,8,25,0.00,0,,161
2011-9-26,75,61,47,39,34,30,55,37,19,29.98,29.88,29.68,10,10,10,20,8,24,0.00,0,,260
2011-9-27,85,65,44,42,34,31,65,40,15,29.99,29.93,29.85,10,10,10,25,9,31,0.00,0,,194
2011-9-28,66,51,36,42,32,19,76,50,23,30.40,30.15,29.94,10,10,10,18,7,29,0.00,1,,289
2011-9-29,67,50,32,30,27,22,75,48,20,30.46,30.31,30.08,10,10,10,22,9,28,0.00,0,,116
2011-9-30,88,65,41,33,30,23,65,38,10,30.07,29.94,29.84,10,10,10,25,9,31,0.00,0,,178